Time;durP1;ratioP1;P1;durP2;ratioP2;P2;SDS_P1;SDS_P2;PMS_P1;PMS_P2;Temp;Humidity;BMP_temperature;BMP_pressure;BME280_temperature;BME280_humidity;BME280_pressure;Samples;Min_cycle;Max_cycle;Signal;HPM_P1;HPM_P2
2021/09/14 00:00:01;;;;;;;16.45;2.95;;;;;;;17.25;64.09;98144.13;5103300;28;20048;-77
2021/09/14 00:02:37;;;;;;;11.33;3.13;;;;;;;17.18;64.14;98143.97;5075318;28;20040;-78
2021/09/14 00:05:11;;;;;;;11.52;3.67;;;;;;;17.18;64.50;98135.69;5057797;28;20829;-82
2021/09/14 00:07:37;;;;;;;15.60;4.47;;;;;;;17.15;62.94;98151.78;5103606;28;20040;-80
2021/09/14 00:10:07;;;;;;;16.70;3.60;;;;;;;16.95;63.02;98136.31;5077416;28;20041;-81
2021/09/14 00:12:33;;;;;;;11.07;3.78;;;;;;;16.94;62.39;98126.44;5108232;28;20100;-83
2021/09/14 00:15:04;;;;;;;11.45;2.50;;;;;;;16.94;61.84;98140.22;5056255;28;20050;-82
2021/09/14 00:17:30;;;;;;;11.60;2.47;;;;;;;16.80;61.86;98116.66;5067330;28;20054;-80
2021/09/14 00:20:04;;;;;;;12.95;2.60;;;;;;;17.09;62.05;98158.75;5090651;28;20164;-82
2021/09/14 00:22:30;;;;;;;7.28;2.50;;;;;;;16.89;62.34;98143.28;5083040;28;20114;-81
2021/09/14 00:24:59;;;;;;;7.50;2.70;;;;;;;16.89;62.25;98132.22;5038482;28;20147;-81
2021/09/14 00:27:27;;;;;;;12.73;2.58;;;;;;;16.95;61.96;98155.63;5073717;28;20044;-80
2021/09/14 00:29:53;;;;;;;16.83;2.70;;;;;;;16.79;62.14;98148.16;5041600;28;20154;-79
2021/09/14 00:32:19;;;;;;;10.50;2.60;;;;;;;16.77;62.48;98133.09;5055529;28;20043;-83
2021/09/14 00:34:46;;;;;;;6.10;2.35;;;;;;;16.92;62.09;98145.31;5084189;28;20595;-81
2021/09/14 00:37:12;;;;;;;11.70;2.55;;;;;;;16.80;62.01;98155.28;5090080;28;20122;-81
2021/09/14 00:39:39;;;;;;;7.40;2.33;;;;;;;16.81;62.27;98178.19;5088739;28;21476;-82
2021/09/14 00:42:07;;;;;;;9.18;2.42;;;;;;;16.80;62.47;98168.28;5075584;28;20047;-84
2021/09/14 00:44:34;;;;;;;9.85;3.08;;;;;;;16.82;62.17;98190.81;5087819;28;20046;-80
2021/09/14 00:47:00;;;;;;;;;;;;;;;16.67;62.36;98192.38;5104043;28;20551;-81
2021/09/14 00:49:26;;;;;;;10.73;3.80;;;;;;;16.64;62.39;98177.38;5072514;28;19989;-81
2021/09/14 00:51:52;;;;;;;17.90;3.83;;;;;;;16.63;61.48;98197.03;5075071;28;20083;-80
2021/09/14 00:54:18;;;;;;;14.87;3.43;;;;;;;16.77;62.34;98213.94;5058324;28;20151;-83
2021/09/14 00:56:44;;;;;;;10.68;2.78;;;;;;;16.79;61.52;98197.84;5072103;28;20560;-83
2021/09/14 00:59:20;;;;;;;18.55;2.90;;;;;;;16.82;60.97;98212.88;5110511;28;20039;-83
2021/09/14 01:01:52;;;;;;;13.02;3.33;;;;;;;16.81;60.95;98201.03;5072640;28;20052;-77
2021/09/14 01:04:18;;;;;;;14.43;2.50;;;;;;;16.58;59.79;98215.44;5098762;28;20039;-79
2021/09/14 01:06:44;;;;;;;14.32;2.30;;;;;;;16.44;58.84;98228.84;5089816;28;20047;-79
2021/09/14 01:09:11;;;;;;;10.35;1.90;;;;;;;16.40;57.84;98206.69;5071986;28;20044;-79
2021/09/14 01:11:39;;;;;;;15.75;2.10;;;;;;;16.49;56.98;98216.78;5087656;28;20040;-78
2021/09/14 01:14:07;;;;;;;7.97;2.17;;;;;;;16.53;56.45;98226.72;5065778;28;20060;-79
2021/09/14 01:16:38;;;;;;;7.70;1.90;;;;;;;16.34;54.85;98227.41;5088852;28;20051;-79
2021/09/14 01:19:09;;;;;;;5.88;1.70;;;;;;;16.28;54.02;98248.91;5090578;28;20055;-80
2021/09/14 01:21:36;;;;;;;6.78;2.10;;;;;;;16.15;55.34;98233.56;5089280;28;20327;-79
2021/09/14 01:24:05;;;;;;;8.77;1.73;;;;;;;16.19;55.19;98222.66;5090486;28;20162;-79
2021/09/14 01:26:37;;;;;;;18.00;2.10;;;;;;;16.10;55.37;98247.63;5070505;28;20041;-79
2021/09/14 01:29:08;;;;;;;13.20;2.42;;;;;;;16.10;53.91;98233.84;5052771;28;20094;-80
2021/09/14 01:31:38;;;;;;;12.88;2.05;;;;;;;15.87;54.34;98231.56;5038996;28;20096;-79
2021/09/14 01:34:04;;;;;;;6.57;1.60;;;;;;;15.89;54.52;98254.09;5079252;28;20060;-79
2021/09/14 01:36:32;;;;;;;7.68;1.70;;;;;;;15.95;54.64;98251.91;5071153;28;20051;-80
2021/09/14 01:38:58;;;;;;;11.48;2.50;;;;;;;15.84;54.25;98248.78;5072620;28;20056;-79
2021/09/14 01:41:26;;;;;;;9.20;1.73;;;;;;;15.74;54.04;98250.09;5073567;28;20040;-80
2021/09/14 01:43:52;;;;;;;11.48;1.85;;;;;;;15.82;54.52;98254.66;5073597;28;20051;-80
2021/09/14 01:46:18;;;;;;;7.53;1.80;;;;;;;15.74;53.05;98263.84;5071268;28;20048;-79
2021/09/14 01:48:45;;;;;;;7.38;1.90;;;;;;;15.77;53.02;98265.91;5077971;28;20040;-79
2021/09/14 01:51:13;;;;;;;10.40;1.75;;;;;;;15.64;52.97;98245.03;5073001;28;20079;-80
2021/09/14 01:53:39;;;;;;;;;;;;;;;15.60;53.08;98258.69;5096131;28;20082;-79
2021/09/14 01:56:06;;;;;;;10.45;1.77;;;;;;;15.67;53.01;98272.69;5084369;28;20443;-80
2021/09/14 01:58:40;;;;;;;5.30;1.60;;;;;;;15.69;53.18;98275.13;5088338;28;20516;-79
2021/09/14 02:01:35;;;;;;;13.27;2.20;;;;;;;15.57;53.06;98265.72;5071053;28;20051;-78
2021/09/14 02:04:04;;;;;;;12.00;2.37;;;;;;;15.55;52.87;98264.44;5082301;28;20406;-80
2021/09/14 02:58:40;;;;;;;12.20;5.30;;;;;;;15.08;50.97;98296.00;5113932;28;20055;-79
2021/09/14 03:01:09;;;;;;;8.90;3.47;;;;;;;15.16;50.64;98308.84;5082568;28;20125;-77
2021/09/14 03:03:36;;;;;;;;;;;;;;;15.10;50.94;98308.25;5090464;28;20039;-78
2021/09/14 03:06:03;;;;;;;27.55;11.77;;;;;;;15.02;51.03;98298.16;5074777;28;19951;-79
2021/09/14 03:08:32;;;;;;;22.55;8.63;;;;;;;14.99;50.27;98305.13;5073627;28;20036;-79
2021/09/14 03:11:04;;;;;;;15.55;3.97;;;;;;;15.02;50.58;98309.16;5074367;28;20096;-78
2021/09/14 03:13:32;;;;;;;11.00;4.50;;;;;;;15.01;50.94;98305.59;5075890;28;20044;-78
2021/09/14 03:15:58;;;;;;;10.10;3.08;;;;;;;14.96;50.10;98305.81;5094729;28;20052;-78
2021/09/14 03:18:25;;;;;;;6.80;2.10;;;;;;;14.94;50.03;98308.13;5086566;28;20051;-78
2021/09/14 03:20:53;;;;;;;13.40;2.20;;;;;;;14.95;50.25;98309.72;5094700;28;20051;-78
2021/09/14 03:23:19;;;;;;;7.15;1.77;;;;;;;14.83;49.92;98305.00;5076696;28;20044;-78
2021/09/14 03:25:45;;;;;;;6.85;1.90;;;;;;;14.86;49.95;98309.81;5077231;28;20134;-78
2021/09/14 03:28:11;;;;;;;8.20;1.98;;;;;;;14.98;49.61;98320.03;5079158;28;20090;-78
2021/09/14 03:30:38;;;;;;;7.53;1.90;;;;;;;14.96;49.83;98316.00;5081197;28;20059;-79
2021/09/14 03:33:04;;;;;;;7.85;1.90;;;;;;;14.94;49.34;98315.56;5097227;28;20496;-78
2021/09/14 03:35:31;;;;;;;21.02;2.30;;;;;;;14.95;49.97;98322.66;5090932;28;20048;-80
2021/09/14 03:37:58;;;;;;;13.85;2.00;;;;;;;14.95;49.80;98340.00;5097156;28;20036;-79
2021/09/14 03:40:25;;;;;;;10.07;1.80;;;;;;;14.87;49.82;98329.88;5090633;28;20043;-79
2021/09/14 03:42:51;;;;;;;5.63;1.70;;;;;;;14.96;49.91;98324.28;5056220;28;20048;-79
2021/09/14 03:45:18;;;;;;;13.27;1.70;;;;;;;14.81;50.23;98331.22;5056297;28;20098;-79
2021/09/14 03:47:44;;;;;;;9.27;1.90;;;;;;;14.83;49.97;98340.78;5091480;28;20520;-79
2021/09/14 03:50:12;;;;;;;;;;;;;;;14.87;49.82;98336.19;5066577;28;20426;-79
2021/09/14 03:52:38;;;;;;;5.60;2.03;;;;;;;14.77;50.43;98335.81;5100487;28;20384;-79
2021/09/14 03:55:07;;;;;;;6.90;1.80;;;;;;;14.77;50.07;98338.56;5090805;28;20062;-79
2021/09/14 03:57:38;;;;;;;6.53;1.70;;;;;;;14.78;50.01;98340.19;5078417;28;20517;-79
2021/09/14 04:00:06;;;;;;;6.70;1.70;;;;;;;14.64;50.51;98343.16;5091690;28;20043;-79
2021/09/14 04:02:46;;;;;;;7.30;1.80;;;;;;;14.54;50.67;98345.22;5107495;28;20496;-78
2021/09/14 04:05:30;;;;;;;8.32;1.70;;;;;;;14.62;50.98;98349.03;5063081;28;20044;-78
2021/09/14 04:10:37;;;;;;;6.88;1.58;;;;;;;14.68;50.48;98342.16;5073353;28;20059;-79
2021/09/14 04:13:03;;;;;;;8.85;1.70;;;;;;;14.64;50.66;98335.72;5080680;28;20468;-79
2021/09/14 04:15:29;;;;;;;12.15;2.25;;;;;;;14.73;50.74;98352.97;5065900;28;20086;-79
2021/09/14 04:18:03;;;;;;;12.68;1.80;;;;;;;14.64;51.25;98354.97;5089889;28;20047;-79
2021/09/14 04:20:29;;;;;;;;;;;;;;;14.58;51.09;98368.13;5083166;28;20124;-80
2021/09/14 04:22:55;;;;;;;6.40;1.60;;;;;;;14.57;51.32;98355.53;5064692;28;20374;-80
2021/09/14 04:25:21;;;;;;;7.38;1.70;;;;;;;14.58;51.35;98367.31;5060282;28;20044;-79
2021/09/14 04:27:49;;;;;;;7.57;1.60;;;;;;;14.65;50.61;98369.53;5091418;28;20050;-80
2021/09/14 04:30:16;;;;;;;10.80;2.13;;;;;;;14.71;50.96;98370.94;5057885;28;20420;-79
2021/09/14 04:32:45;;;;;;;6.07;1.60;;;;;;;14.72;50.24;98378.09;5059698;28;20055;-80
2021/09/14 04:35:12;;;;;;;15.93;2.47;;;;;;;14.62;50.46;98365.53;5079143;28;20043;-79
2021/09/14 04:37:39;;;;;;;23.75;2.38;;;;;;;14.69;50.82;98374.03;5111154;28;20561;-80
2021/09/14 04:40:08;;;;;;;12.75;2.10;;;;;;;14.72;51.03;98372.59;5092802;28;20454;-80
2021/09/14 04:42:35;;;;;;;11.00;1.98;;;;;;;14.72;50.86;98373.38;5079612;28;20036;-76
2021/09/14 04:45:05;;;;;;;11.02;2.20;;;;;;;14.76;50.82;98384.50;5096933;28;20427;-77
2021/09/14 04:47:35;;;;;;;10.57;2.00;;;;;;;14.76;50.82;98375.47;5094766;28;20561;-78
2021/09/14 04:50:05;;;;;;;13.82;1.83;;;;;;;14.77;51.10;98368.81;5075653;28;20045;-77
2021/09/14 04:52:32;;;;;;;4.43;1.55;;;;;;;14.72;50.43;98359.63;5059285;28;20052;-80
2021/09/14 04:54:58;;;;;;;8.18;1.70;;;;;;;14.82;50.07;98369.41;5084082;28;20047;-80
2021/09/14 04:57:24;;;;;;;11.07;1.90;;;;;;;14.78;50.09;98371.22;5083391;28;20040;-79
2021/09/14 04:59:51;;;;;;;9.38;2.20;;;;;;;14.81;50.71;98376.03;5093230;28;20048;-80
2021/09/14 05:02:18;;;;;;;10.52;2.20;;;;;;;14.84;50.51;98380.91;5073077;28;20543;-81
2021/09/14 05:04:45;;;;;;;7.78;2.03;;;;;;;14.87;50.32;98385.72;5088951;28;20048;-81
2021/09/14 05:07:11;;;;;;;13.10;2.17;;;;;;;14.92;50.55;98378.38;5090226;28;20417;-80
2021/09/14 05:09:37;;;;;;;11.00;1.98;;;;;;;14.75;50.37;98371.91;5073420;28;20044;-80
2021/09/14 05:12:04;;;;;;;5.78;1.83;;;;;;;14.84;50.45;98388.34;5078215;28;20096;-80
2021/09/14 05:14:30;;;;;;;4.97;1.52;;;;;;;14.82;49.82;98385.13;5091766;28;20044;-78
2021/09/14 05:17:15;;;;;;;9.95;1.83;;;;;;;14.92;49.95;98392.16;5071958;28;20048;-80
2021/09/14 05:20:05;;;;;;;11.75;2.35;;;;;;;14.89;49.88;98393.63;5070227;28;20036;-79
2021/09/14 05:22:34;;;;;;;14.40;2.17;;;;;;;14.85;50.25;98392.69;5064562;28;20358;-80
2021/09/14 05:25:01;;;;;;;18.55;2.45;;;;;;;14.88;50.06;98394.75;5055402;28;20044;-86
2021/09/14 05:27:27;;;;;;;15.60;2.90;;;;;;;14.94;50.03;98395.34;5080335;28;20575;-79
2021/09/14 05:29:53;;;;;;;14.63;2.50;;;;;;;14.96;49.90;98379.31;5100516;28;20040;-79
2021/09/14 05:32:19;;;;;;;15.10;2.50;;;;;;;14.98;50.89;98374.25;5073214;28;20148;-78
2021/09/14 05:34:46;;;;;;;14.55;2.33;;;;;;;14.92;51.13;98384.72;5072554;28;20044;-79
2021/09/14 05:37:16;;;;;;;13.85;2.53;;;;;;;14.97;50.34;98389.16;5091861;28;20062;-79
2021/09/14 05:39:43;;;;;;;10.00;2.03;;;;;;;15.04;50.74;98389.44;5090449;28;20067;-78
2021/09/14 05:42:09;;;;;;;10.13;2.05;;;;;;;15.12;50.31;98396.78;5079912;28;20082;-78
2021/09/14 05:44:35;;;;;;;17.67;2.50;;;;;;;15.28;50.33;98390.63;5087711;28;20098;-77
2021/09/14 05:47:04;;;;;;;10.70;2.53;;;;;;;15.28;50.09;98394.22;5087427;28;20342;-77
2021/09/14 05:49:32;;;;;;;36.88;3.13;;;;;;;15.21;50.29;98380.19;5092455;28;20048;-79
2021/09/14 05:52:00;;;;;;;16.70;2.40;;;;;;;15.14;50.41;98369.75;5082811;28;20048;-78
2021/09/14 05:54:28;;;;;;;12.23;2.85;;;;;;;15.31;50.89;98395.50;5054722;28;20044;-76
2021/09/14 05:56:56;;;;;;;17.88;2.30;;;;;;;15.40;50.80;98393.41;5092231;28;20060;-76
2021/09/14 05:59:22;;;;;;;21.20;2.45;;;;;;;15.41;50.52;98389.53;5094642;28;20067;-77
2021/09/14 06:01:49;;;;;;;29.48;2.45;;;;;;;15.40;50.70;98382.41;5074964;28;20462;-77
2021/09/14 06:04:15;;;;;;;13.60;2.35;;;;;;;15.48;50.60;98383.44;5077667;28;20040;-78
2021/09/14 06:06:41;;;;;;;8.93;2.47;;;;;;;15.43;51.07;98395.50;5057810;28;20048;-78
2021/09/14 06:09:10;;;;;;;9.00;1.92;;;;;;;15.47;50.75;98392.06;5094318;28;20139;-77
2021/09/14 06:11:39;;;;;;;;;;;;;;;15.56;51.41;98390.81;5095173;28;20428;-77
2021/09/14 06:14:05;;;;;;;10.38;2.00;;;;;;;15.63;51.15;98381.16;5085888;28;19974;-77
2021/09/14 06:16:31;;;;;;;13.90;2.30;;;;;;;15.59;51.12;98394.81;5073444;28;20048;-77
2021/09/14 06:18:58;;;;;;;16.95;2.85;;;;;;;15.58;51.49;98396.78;5044418;28;20521;-77
2021/09/14 06:21:27;;;;;;;8.02;2.03;;;;;;;15.68;51.39;98400.22;5093267;28;20048;-80
2021/09/14 06:23:53;;;;;;;12.52;3.00;;;;;;;15.54;50.99;98389.53;5093239;28;20071;-78
2021/09/14 06:26:21;;;;;;;16.42;2.58;;;;;;;15.54;51.05;98392.28;5094030;28;20047;-78
2021/09/14 06:29:19;;;;;;;13.82;2.10;;;;;;;15.56;50.59;98388.06;5073976;28;20048;-80
2021/09/14 06:32:15;;;;;;;16.27;2.33;;;;;;;15.16;49.80;98334.44;5019787;28;20072;-79
2021/09/14 06:39:07;;;;;;;17.60;2.60;;;;;;;15.55;49.45;98358.09;5004073;28;20076;-81
2021/09/14 06:42:00;;;;;;;12.73;2.30;;;;;;;15.69;49.49;98388.88;4985513;28;20088;-81
2021/09/14 06:45:01;;;;;;;15.05;2.40;;;;;;;15.34;49.62;98319.63;5038971;28;20414;-80
2021/09/14 06:48:10;;;;;;;14.35;2.00;;;;;;;15.40;49.77;98301.75;5023024;28;20060;-80
2021/09/14 06:50:49;;;;;;;6.55;1.67;;;;;;;15.68;49.32;98370.72;5030106;28;20057;-79
2021/09/14 06:53:40;;;;;;;13.48;2.08;;;;;;;15.81;49.80;98387.28;5042849;28;20078;-80
2021/09/14 06:57:22;;;;;;;8.65;1.90;;;;;;;15.93;49.92;98387.31;5034710;28;20057;-81
2021/09/14 06:59:59;;;;;;;13.55;2.30;;;;;;;15.79;49.06;98373.03;5051760;28;20052;-81
2021/09/14 07:02:40;;;;;;;11.55;2.03;;;;;;;15.42;49.33;98315.97;5036929;28;20051;-82
2021/09/14 07:05:21;;;;;;;10.23;2.10;;;;;;;15.90;49.40;98401.75;5094395;28;20055;-82
2021/09/14 07:08:05;;;;;;;15.63;2.60;;;;;;;15.96;49.15;98405.91;5093257;28;20048;-81
2021/09/14 07:10:45;;;;;;;13.48;2.38;;;;;;;15.70;49.24;98370.41;5092319;28;20044;-80
2021/09/14 07:13:45;;;;;;;12.98;2.58;;;;;;;15.52;49.80;98351.31;5073067;28;20059;-83
2021/09/14 07:16:39;;;;;;;10.60;2.17;;;;;;;15.98;48.72;98392.59;5073865;28;20048;-83
2021/09/14 07:23:22;;;;;;;12.07;2.50;;;;;;;15.91;47.19;98339.19;5075227;28;20092;-82
2021/09/14 07:25:51;;;;;;;29.85;2.50;;;;;;;16.28;47.45;98397.00;5061466;28;20052;-81
2021/09/14 07:28:17;;;;;;;14.05;1.95;;;;;;;16.17;47.08;98360.84;5086202;28;20043;-81
2021/09/14 07:30:43;;;;;;;12.68;2.05;;;;;;;16.38;47.36;98388.28;5095602;28;20052;-81
2021/09/14 07:33:12;;;;;;;9.38;2.22;;;;;;;16.45;48.38;98395.97;5095353;28;20082;-79
2021/09/14 07:35:38;;;;;;;13.75;2.03;;;;;;;16.47;47.78;98407.44;5083173;28;20072;-81
2021/09/14 07:38:04;;;;;;;24.45;2.40;;;;;;;16.47;47.97;98393.66;5084720;28;20089;-86
2021/09/14 07:40:33;;;;;;;12.52;2.00;;;;;;;16.45;46.10;98402.25;5101347;28;20422;-88
2021/09/14 07:43:22;;;;;;;11.77;1.80;;;;;;;16.21;44.95;98370.03;5073427;28;20507;-86
2021/09/14 07:46:11;;;;;;;16.23;1.70;;;;;;;16.16;45.22;98368.34;5089721;28;20044;-88
2021/09/14 07:49:04;;;;;;;7.38;1.77;;;;;;;15.91;45.63;98353.75;5060692;28;20066;-88
2021/09/14 07:51:56;;;;;;;6.60;1.52;;;;;;;15.96;45.80;98367.31;5067435;28;20051;-89
2021/09/14 07:54:53;;;;;;;14.73;2.33;;;;;;;15.96;45.15;98344.44;5091497;28;20063;-87
2021/09/14 07:57:49;;;;;;;7.13;1.92;;;;;;;16.40;45.90;98399.75;5058346;28;20048;-84
2021/09/14 08:00:39;;;;;;;8.60;1.83;;;;;;;16.21;45.41;98350.72;5068786;28;20048;-87
2021/09/14 08:03:05;;;;;;;13.48;2.10;;;;;;;16.22;45.54;98359.81;5064951;28;20109;-85
2021/09/14 08:06:03;;;;;;;11.98;1.77;;;;;;;16.12;43.51;98334.31;5093250;28;20086;-84
2021/09/14 08:08:53;;;;;;;18.48;2.67;;;;;;;16.47;43.61;98385.38;5056550;28;20060;-84
2021/09/14 08:11:53;;;;;;;17.88;2.10;;;;;;;16.58;43.66;98396.72;5090818;28;20154;-86
2021/09/14 08:14:31;;;;;;;8.88;1.60;;;;;;;16.50;43.83;98345.25;5069742;28;20060;-84
2021/09/14 08:17:02;;;;;;;13.10;2.20;;;;;;;16.46;43.83;98369.97;5017881;28;20051;-83
2021/09/14 08:19:34;;;;;;;10.43;2.05;;;;;;;16.61;44.40;98386.94;5051224;28;20515;-85
2021/09/14 08:22:12;;;;;;;10.40;2.15;;;;;;;16.67;43.76;98388.31;5064931;28;20067;-86
2021/09/14 08:24:45;;;;;;;16.63;2.10;;;;;;;16.56;43.34;98430.19;5055923;28;20060;-83
2021/09/14 08:27:11;;;;;;;29.65;3.72;;;;;;;16.61;43.55;98395.22;5052203;28;20274;-83
2021/09/14 08:30:14;;;;;;;15.07;2.10;;;;;;;16.71;41.62;98430.63;5068082;28;20106;-85
2021/09/14 08:33:11;;;;;;;10.63;1.90;;;;;;;16.64;41.63;98420.16;5034668;28;20044;-86
2021/09/14 08:35:46;;;;;;;11.32;2.58;;;;;;;16.56;40.80;98410.06;5052006;28;20057;-84
2021/09/14 08:38:14;;;;;;;14.32;2.17;;;;;;;16.60;40.95;98424.75;5035437;28;20051;-83
2021/09/14 08:40:44;;;;;;;13.82;2.00;;;;;;;16.39;42.24;98394.56;5040304;28;20052;-87
2021/09/14 08:43:11;;;;;;;7.65;2.30;;;;;;;16.63;42.50;98415.00;5066767;28;20071;-76
2021/09/14 08:45:37;;;;;;;16.42;2.10;;;;;;;16.71;42.91;98419.59;5080606;28;20054;-77
2021/09/14 08:48:04;;;;;;;14.70;2.40;;;;;;;16.64;42.38;98416.59;5073229;28;20040;-73
2021/09/14 08:50:30;;;;;;;;;;;;;;;16.73;42.33;98411.75;5092324;28;20062;-74
2021/09/14 08:52:56;;;;;;;16.98;2.20;;;;;;;16.62;41.95;98416.16;5091973;28;19956;-73
2021/09/14 08:55:24;;;;;;;12.00;2.60;;;;;;;16.63;42.16;98418.56;5075926;28;20043;-74
2021/09/14 08:57:51;;;;;;;13.07;2.70;;;;;;;16.68;41.42;98421.06;5064370;28;20050;-74
2021/09/14 09:00:28;;;;;;;17.80;2.60;;;;;;;16.54;41.83;98423.41;5070489;28;20048;-76
2021/09/14 09:02:54;;;;;;;;;;;;;;;16.42;41.69;98418.72;5078167;28;20106;-76
2021/09/14 09:05:29;;;;;;;10.90;2.33;;;;;;;16.37;41.56;98432.72;5071474;28;19929;-77
2021/09/14 09:07:55;;;;;;;8.18;2.55;;;;;;;16.33;41.14;98421.63;5072158;28;20520;-78
2021/09/14 09:10:21;;;;;;;12.73;2.40;;;;;;;16.27;40.95;98428.50;5091452;28;20130;-77
2021/09/14 09:12:49;;;;;;;8.75;1.92;;;;;;;16.20;41.29;98411.75;5069907;28;20117;-77
2021/09/14 09:15:26;;;;;;;12.02;1.88;;;;;;;16.27;40.68;98421.03;5087025;28;20062;-77
2021/09/14 09:18:03;;;;;;;19.35;2.10;;;;;;;16.31;39.89;98410.09;5100516;28;20058;-77
2021/09/14 09:20:31;;;;;;;11.48;1.83;;;;;;;16.29;39.13;98423.44;5071937;28;20048;-75
2021/09/14 09:23:00;;;;;;;13.55;2.60;;;;;;;16.26;39.10;98415.88;5089968;28;20048;-77
2021/09/14 09:25:26;;;;;;;10.00;1.80;;;;;;;16.27;40.31;98417.47;5073631;28;20048;-77
2021/09/14 09:28:05;;;;;;;8.90;2.13;;;;;;;16.19;39.75;98430.22;5090337;28;20543;-77
2021/09/14 09:30:36;;;;;;;7.57;1.80;;;;;;;16.09;40.49;98423.22;5073649;28;20048;-75
2021/09/14 09:33:03;;;;;;;11.15;2.15;;;;;;;16.07;41.04;98409.00;5060483;28;20044;-74
2021/09/14 09:35:32;;;;;;;9.52;1.90;;;;;;;16.16;40.67;98419.91;5096181;28;20062;-74
2021/09/14 09:37:59;;;;;;;10.50;2.15;;;;;;;16.05;40.02;98427.03;5080751;28;20052;-75
2021/09/14 09:40:27;;;;;;;7.13;1.90;;;;;;;16.05;40.10;98429.78;5059795;28;20040;-74
2021/09/14 09:42:53;;;;;;;23.20;2.35;;;;;;;16.04;41.77;98439.19;5095687;28;20148;-75
2021/09/14 09:45:21;;;;;;;17.73;2.40;;;;;;;16.14;41.42;98419.44;5093473;28;22015;-74
2021/09/14 09:47:46;;;;;;;;;;;;;;;16.07;41.12;98433.00;5094393;28;20052;-74
2021/09/14 09:50:13;;;;;;;9.10;1.63;;;;;;;16.07;41.46;98439.31;5094212;28;20047;-75
2021/09/14 09:52:40;;;;;;;12.75;1.92;;;;;;;16.03;41.26;98438.41;5076226;28;21635;-75
2021/09/14 09:55:07;;;;;;;8.98;1.80;;;;;;;15.98;40.98;98438.63;5099405;28;20061;-78
2021/09/14 09:57:33;;;;;;;20.80;2.28;;;;;;;16.09;41.09;98450.00;5052179;28;20040;-78
2021/09/14 10:00:00;;;;;;;15.43;2.63;;;;;;;16.25;42.24;98458.38;5094732;28;20139;-79
2021/09/14 10:02:28;;;;;;;17.30;1.77;;;;;;;16.30;40.65;98447.09;5095504;28;20106;-78
2021/09/14 10:05:00;;;;;;;16.27;2.10;;;;;;;16.19;39.61;98444.03;5075904;28;20502;-79
2021/09/14 10:07:28;;;;;;;11.38;2.17;;;;;;;16.09;40.10;98439.00;5077289;28;20538;-79
2021/09/14 10:09:57;;;;;;;17.67;2.45;;;;;;;16.02;39.38;98447.81;5085413;28;20142;-78
2021/09/14 10:12:25;;;;;;;13.27;1.90;;;;;;;15.90;39.05;98445.06;5079035;28;20048;-72
2021/09/14 10:14:59;;;;;;;9.73;1.83;;;;;;;15.77;39.42;98444.22;5093687;28;20066;-73
2021/09/14 10:17:26;;;;;;;7.05;1.75;;;;;;;15.85;40.40;98449.63;5094833;28;20085;-71
2021/09/14 10:19:53;;;;;;;8.70;1.55;;;;;;;15.72;39.43;98437.78;5096494;28;20048;-73
2021/09/14 10:22:24;;;;;;;14.93;2.28;;;;;;;15.72;40.99;98428.72;5090287;28;20045;-73
2021/09/14 10:24:52;;;;;;;13.13;1.90;;;;;;;15.81;39.96;98445.13;5092862;28;20040;-73
2021/09/14 10:27:18;;;;;;;12.77;1.92;;;;;;;15.77;39.17;98456.03;5092291;28;20044;-72
2021/09/14 10:29:55;;;;;;;11.27;1.75;;;;;;;15.77;39.02;98442.25;5078420;28;20054;-73
2021/09/14 10:32:21;;;;;;;15.57;1.63;;;;;;;15.55;37.79;98441.53;5083605;28;20047;-72
2021/09/14 10:34:56;;;;;;;10.13;1.70;;;;;;;15.58;39.35;98418.00;5076393;28;20055;-73
2021/09/14 10:37:30;;;;;;;8.80;1.70;;;;;;;15.79;39.91;98439.19;5081148;28;20055;-73
2021/09/14 10:40:09;;;;;;;6.03;1.60;;;;;;;15.89;39.56;98424.94;5090253;28;20101;-70
2021/09/14 10:42:38;;;;;;;7.78;2.00;;;;;;;15.87;39.59;98441.81;5097390;28;20108;-71
2021/09/14 10:45:09;;;;;;;13.07;1.85;;;;;;;15.88;39.65;98429.66;5099940;28;20051;-72
2021/09/14 10:47:37;;;;;;;9.98;1.80;;;;;;;16.02;40.34;98442.31;5097564;28;20384;-72
2021/09/14 10:50:05;;;;;;;6.55;2.25;;;;;;;16.08;39.81;98443.69;5094625;28;20047;-73
2021/09/14 10:52:33;;;;;;;17.88;2.03;;;;;;;16.12;40.13;98439.09;5100126;28;20071;-74
2021/09/14 10:55:05;;;;;;;6.32;2.15;;;;;;;16.12;39.92;98446.56;5091569;28;20043;-73
2021/09/14 10:57:32;;;;;;;9.05;2.00;;;;;;;16.25;39.81;98433.56;5097664;28;20244;-73
2021/09/14 10:59:58;;;;;;;;;;;;;;;16.67;40.21;98443.47;5058358;28;20050;-73
2021/09/14 11:02:26;;;;;;;19.65;2.83;;;;;;;16.82;40.11;98440.00;5074180;28;19978;-87
2021/09/14 11:04:55;;;;;;;11.85;1.83;;;;;;;17.05;40.06;98452.47;5076273;28;20463;-72
2021/09/14 11:07:22;;;;;;;11.57;1.55;;;;;;;17.19;38.47;98452.88;5090517;28;20055;-73
2021/09/14 11:09:52;;;;;;;;;;;;;;;17.40;38.61;98463.72;5093102;28;20074;-72
2021/09/14 11:12:19;;;;;;;10.07;1.80;;;;;;;17.42;39.54;98442.06;5094886;28;19967;-73
2021/09/14 11:14:45;;;;;;;18.15;2.00;;;;;;;17.31;39.03;98440.97;5079509;28;20058;-72
2021/09/14 11:17:22;;;;;;;12.23;1.65;;;;;;;17.55;38.32;98456.59;5074101;28;20048;-81
2021/09/14 11:19:51;;;;;;;13.10;2.35;;;;;;;18.24;37.01;98441.72;5107872;28;20053;-79
2021/09/14 11:22:28;;;;;;;14.05;2.10;;;;;;;18.36;36.59;98434.50;5043325;28;20602;-80
2021/09/14 11:24:54;;;;;;;7.32;2.10;;;;;;;18.48;37.20;98444.63;5092827;28;20048;-79
2021/09/14 11:27:22;;;;;;;5.80;1.70;;;;;;;18.57;36.31;98414.78;5078694;28;20055;-80
2021/09/14 11:29:51;;;;;;;13.68;1.98;;;;;;;18.92;37.09;98402.06;5079603;28;20051;-83
2021/09/14 11:32:17;;;;;;;20.63;2.25;;;;;;;18.94;36.30;98422.66;5094231;28;20040;-81
2021/09/14 11:34:44;;;;;;;15.82;2.33;;;;;;;19.40;34.37;98429.50;5091351;28;20054;-80
2021/09/14 11:37:10;;;;;;;10.95;2.38;;;;;;;19.42;34.57;98394.72;5071338;28;20456;-76
2021/09/14 11:39:38;;;;;;;17.92;2.47;;;;;;;19.12;33.85;98445.22;5077950;28;20040;-78
2021/09/14 11:42:08;;;;;;;28.40;2.67;;;;;;;18.83;34.16;98425.22;5096769;28;20040;-79
2021/09/14 11:44:34;;;;;;;21.10;2.75;;;;;;;18.76;34.11;98399.34;5072992;28;20048;-78
2021/09/14 11:47:07;;;;;;;30.52;3.22;;;;;;;18.35;34.16;98427.34;5075639;28;20147;-79
2021/09/14 11:49:33;;;;;;;13.05;2.45;;;;;;;18.19;35.38;98430.94;5098707;28;20066;-80
2021/09/14 11:52:01;;;;;;;18.60;2.53;;;;;;;17.84;35.71;98412.31;5108705;28;20044;-80
2021/09/14 11:54:33;;;;;;;20.42;2.65;;;;;;;17.98;36.42;98450.56;5104418;28;20093;-81
2021/09/14 11:57:01;;;;;;;14.35;2.28;;;;;;;17.96;36.25;98430.78;5072407;28;20099;-82
2021/09/14 11:59:31;;;;;;;18.45;2.58;;;;;;;17.81;36.25;98433.19;5083408;28;20087;-79
2021/09/14 12:01:57;;;;;;;16.10;2.65;;;;;;;17.93;36.96;98420.44;5055547;28;20476;-78
2021/09/14 12:04:23;;;;;;;11.93;2.80;;;;;;;18.39;36.29;98409.69;5073048;28;20043;-81
2021/09/14 12:06:51;;;;;;;16.30;2.42;;;;;;;19.11;35.24;98406.78;5083026;28;20143;-79
2021/09/14 12:09:18;;;;;;;15.82;2.97;;;;;;;19.61;34.65;98412.47;5098335;28;20093;-80
2021/09/14 12:11:44;;;;;;;16.67;3.10;;;;;;;20.04;33.81;98422.69;5074824;28;20070;-80
2021/09/14 12:14:18;;;;;;;14.98;2.42;;;;;;;20.43;32.32;98407.81;5074499;28;20108;-81
2021/09/14 12:16:45;;;;;;;19.33;2.50;;;;;;;20.58;31.45;98408.78;5074972;28;20044;-80
2021/09/14 12:19:12;;;;;;;15.93;2.90;;;;;;;20.46;31.55;98402.31;5093124;28;20085;-83
2021/09/14 12:21:38;;;;;;;20.67;2.95;;;;;;;20.72;32.34;98400.63;5090695;28;20302;-79
2021/09/14 12:24:05;;;;;;;13.97;2.67;;;;;;;20.36;32.25;98392.63;5073990;28;20063;-81
2021/09/14 12:26:42;;;;;;;13.45;2.17;;;;;;;20.14;31.79;98421.25;5091197;28;20066;-80
2021/09/14 12:29:10;;;;;;;18.38;3.47;;;;;;;19.92;30.89;98407.84;5095693;28;20036;-80
2021/09/14 12:31:41;;;;;;;12.48;3.05;;;;;;;20.01;31.68;98415.91;5092314;28;20047;-78
2021/09/14 12:34:08;;;;;;;23.70;2.70;;;;;;;20.08;32.78;98412.44;5072031;28;20033;-80
2021/09/14 12:36:36;;;;;;;18.33;3.25;;;;;;;19.97;32.80;98423.38;5064238;28;20040;-83
2021/09/14 12:39:02;;;;;;;27.23;3.92;;;;;;;19.80;32.91;98432.97;5071586;28;20101;-81
2021/09/14 12:41:28;;;;;;;12.40;2.80;;;;;;;19.60;33.20;98423.94;5055582;28;20048;-81
2021/09/14 12:43:54;;;;;;;23.80;2.83;;;;;;;19.50;32.62;98425.31;5084101;28;20400;-82
2021/09/14 12:46:20;;;;;;;12.93;2.75;;;;;;;19.67;33.41;98418.50;5076571;28;20040;-80
2021/09/14 12:48:48;;;;;;;22.63;2.85;;;;;;;19.34;32.76;98420.69;5089852;28;20036;-81
2021/09/14 12:51:13;;;;;;;;;;;;;;;19.28;33.01;98422.16;5078342;28;20041;-79